Terminal Aerodrome Forecast
Issued by NWS

Current Version | Previous Version | Text Only | Print | Product List | Glossary On
Versions: 1 2 3 4 5 6 7 8 9 10 11 12 13 14 15 16 17 18 19 20 21 22 23 24 25 26 27 28 29 30 31 32
000
FTUS45 KLKN 192300
TAFEKO
TAF
KEKO 192320Z 2000/2024 17008KT P6SM VCTS BKN090CB
      TEMPO 2000/2004 VRB15G35KT -TSRA BKN080CB
     FM200600 VRB06KT P6SM VCTS BKN120CB
     FM202000 24012G22KT P6SM VCTS BKN100CB=

USA.gov is the U.S. government's official web portal to all federal, state and local government web resources and services.